Current | Forecast
Updated: 5:00 PM EEST on May 25, 2017
Observed at Arad, Hungary
Temperature 19°C
Humidity 60%
Dew Point 11°C
Wind NNW at 7 km/h
Pressure 1015 hPa (Steady)
Conditions Mostly Cloudy
Visibility 10.0 kilometers
UV 3 out of 16
Clouds Scattered Clouds (SCT) : 1066 m
Mostly Cloudy (BKN) : 1371 m
Yesterday's Maximum 21°C
Yesterday's Minimum 14°C approx.
Yesterday's Heating Degree Days 1 approx.
Sunrise4:53 AM CEST
Sunset8:16 PM CEST
Moon Rise4:57 AM CEST
Moon Set7:42 PM CEST
Moon PhaseMoon Phase
Waning Crescent
Raw METARMETAR LRAR 251400Z 33004KT 270V050 9999 SCT035 BKN045 19/11 Q1015 R09/29//95


Monday
. High: 66° F.
Tuesday
. High: 77° F.
Wednesday
. High: 82° F.
Thursday
. High: 87° F.
Friday
. High: 75° F.
Saturday
. High: 73° F.
Sunday
. High: 78° F.
Monday
. High: 75° F.

Units: English | Metric

Find the Weather for any City, State or Zipcode, or Country:

U.S. State List | Severe Weather | Tropical Storms | Ski Conditions
United States | Canada | Central America | South America | Asia | Europe | Australia | Africa | Islands

Weather Underground

© Copyright 2017
The Weather Company, LLC